sensor_id;sensor_type;location;lat;lon;timestamp;P1;durP1;ratioP1;P2;durP2;ratioP2
59336;SDS011;45115;52.002;4.686;2022-09-29T00:00:10;11.77;;;6.53;;
59336;SDS011;45115;52.002;4.686;2022-09-29T00:02:38;13.25;;;7.18;;
59336;SDS011;45115;52.002;4.686;2022-09-29T00:05:05;11.40;;;6.20;;
59336;SDS011;45115;52.002;4.686;2022-09-29T00:07:33;15.20;;;7.05;;
59336;SDS011;45115;52.002;4.686;2022-09-29T00:09:59;11.13;;;6.53;;
59336;SDS011;45115;52.002;4.686;2022-09-29T00:12:26;10.95;;;6.28;;
59336;SDS011;45115;52.002;4.686;2022-09-29T00:14:58;12.43;;;7.00;;
59336;SDS011;45115;52.002;4.686;2022-09-29T00:17:25;14.02;;;7.35;;
59336;SDS011;45115;52.002;4.686;2022-09-29T00:19:51;14.60;;;7.93;;
59336;SDS011;45115;52.002;4.686;2022-09-29T00:22:18;12.98;;;7.35;;
59336;SDS011;45115;52.002;4.686;2022-09-29T00:24:45;15.05;;;7.28;;
59336;SDS011;45115;52.002;4.686;2022-09-29T00:27:13;10.57;;;6.50;;
59336;SDS011;45115;52.002;4.686;2022-09-29T00:29:39;11.27;;;7.00;;
59336;SDS011;45115;52.002;4.686;2022-09-29T00:32:07;14.63;;;7.32;;
59336;SDS011;45115;52.002;4.686;2022-09-29T00:34:34;12.45;;;6.50;;
59336;SDS011;45115;52.002;4.686;2022-09-29T00:37:01;11.65;;;6.25;;
59336;SDS011;45115;52.002;4.686;2022-09-29T00:39:28;12.45;;;6.68;;
59336;SDS011;45115;52.002;4.686;2022-09-29T00:41:55;10.25;;;6.25;;
59336;SDS011;45115;52.002;4.686;2022-09-29T00:47:26;14.20;;;6.95;;
59336;SDS011;45115;52.002;4.686;2022-09-29T00:49:55;13.35;;;7.40;;
59336;SDS011;45115;52.002;4.686;2022-09-29T00:52:28;13.00;;;6.63;;
59336;SDS011;45115;52.002;4.686;2022-09-29T00:55:00;13.45;;;7.32;;
59336;SDS011;45115;52.002;4.686;2022-09-29T00:57:32;14.43;;;8.07;;
59336;SDS011;45115;52.002;4.686;2022-09-29T01:00:03;12.38;;;6.80;;
59336;SDS011;45115;52.002;4.686;2022-09-29T01:02:34;16.10;;;8.40;;
59336;SDS011;45115;52.002;4.686;2022-09-29T01:05:05;14.55;;;7.35;;
59336;SDS011;45115;52.002;4.686;2022-09-29T01:07:38;13.90;;;8.13;;
59336;SDS011;45115;52.002;4.686;2022-09-29T01:10:08;12.67;;;6.90;;
59336;SDS011;45115;52.002;4.686;2022-09-29T01:12:36;11.88;;;6.35;;
59336;SDS011;45115;52.002;4.686;2022-09-29T01:15:03;13.95;;;7.47;;
59336;SDS011;45115;52.002;4.686;2022-09-29T01:17:30;12.90;;;7.50;;
59336;SDS011;45115;52.002;4.686;2022-09-29T01:19:59;10.15;;;6.25;;
59336;SDS011;45115;52.002;4.686;2022-09-29T01:22:38;13.40;;;7.18;;
59336;SDS011;45115;52.002;4.686;2022-09-29T01:25:39;12.27;;;6.82;;
59336;SDS011;45115;52.002;4.686;2022-09-29T01:28:27;14.18;;;7.70;;
59336;SDS011;45115;52.002;4.686;2022-09-29T01:31:21;13.30;;;6.88;;
59336;SDS011;45115;52.002;4.686;2022-09-29T01:33:57;12.25;;;7.10;;
59336;SDS011;45115;52.002;4.686;2022-09-29T01:36:34;12.80;;;7.65;;
59336;SDS011;45115;52.002;4.686;2022-09-29T01:39:09;12.75;;;7.47;;
59336;SDS011;45115;52.002;4.686;2022-09-29T01:41:48;18.85;;;9.13;;
59336;SDS011;45115;52.002;4.686;2022-09-29T01:44:18;16.25;;;8.27;;
59336;SDS011;45115;52.002;4.686;2022-09-29T01:46:54;14.32;;;7.38;;
59336;SDS011;45115;52.002;4.686;2022-09-29T01:49:25;13.25;;;7.25;;
59336;SDS011;45115;52.002;4.686;2022-09-29T01:51:57;16.05;;;8.32;;
59336;SDS011;45115;52.002;4.686;2022-09-29T01:54:30;15.27;;;8.63;;
59336;SDS011;45115;52.002;4.686;2022-09-29T01:57:05;14.63;;;7.70;;
59336;SDS011;45115;52.002;4.686;2022-09-29T01:59:36;15.32;;;8.13;;
59336;SDS011;45115;52.002;4.686;2022-09-29T02:02:09;16.52;;;8.80;;
59336;SDS011;45115;52.002;4.686;2022-09-29T02:04:41;19.08;;;9.95;;
59336;SDS011;45115;52.002;4.686;2022-09-29T02:07:13;17.70;;;9.70;;
59336;SDS011;45115;52.002;4.686;2022-09-29T02:09:45;20.27;;;11.43;;
59336;SDS011;45115;52.002;4.686;2022-09-29T02:12:16;20.20;;;10.80;;
59336;SDS011;45115;52.002;4.686;2022-09-29T02:14:48;18.17;;;9.77;;
59336;SDS011;45115;52.002;4.686;2022-09-29T02:17:19;18.40;;;10.85;;
59336;SDS011;45115;52.002;4.686;2022-09-29T02:19:49;16.92;;;9.60;;
59336;SDS011;45115;52.002;4.686;2022-09-29T02:22:17;17.95;;;9.80;;
59336;SDS011;45115;52.002;4.686;2022-09-29T02:24:44;20.10;;;9.60;;
59336;SDS011;45115;52.002;4.686;2022-09-29T02:27:12;18.85;;;10.98;;
59336;SDS011;45115;52.002;4.686;2022-09-29T02:29:38;18.52;;;10.13;;
59336;SDS011;45115;52.002;4.686;2022-09-29T02:32:07;18.75;;;11.50;;
59336;SDS011;45115;52.002;4.686;2022-09-29T02:34:36;19.48;;;10.80;;
59336;SDS011;45115;52.002;4.686;2022-09-29T02:37:10;19.42;;;10.40;;
59336;SDS011;45115;52.002;4.686;2022-09-29T02:39:48;19.95;;;10.88;;
59336;SDS011;45115;52.002;4.686;2022-09-29T02:42:23;18.25;;;10.68;;
59336;SDS011;45115;52.002;4.686;2022-09-29T02:45:03;16.27;;;9.15;;
59336;SDS011;45115;52.002;4.686;2022-09-29T02:47:48;15.43;;;8.63;;
59336;SDS011;45115;52.002;4.686;2022-09-29T02:50:32;16.10;;;8.90;;
59336;SDS011;45115;52.002;4.686;2022-09-29T02:53:09;15.57;;;8.82;;
59336;SDS011;45115;52.002;4.686;2022-09-29T02:55:42;20.30;;;11.25;;
59336;SDS011;45115;52.002;4.686;2022-09-29T02:58:17;16.90;;;9.73;;
59336;SDS011;45115;52.002;4.686;2022-09-29T03:00:51;17.95;;;10.35;;
59336;SDS011;45115;52.002;4.686;2022-09-29T03:03:18;17.77;;;10.15;;
59336;SDS011;45115;52.002;4.686;2022-09-29T03:05:47;18.85;;;10.90;;
59336;SDS011;45115;52.002;4.686;2022-09-29T03:08:13;21.63;;;11.52;;
59336;SDS011;45115;52.002;4.686;2022-09-29T03:10:40;20.65;;;11.63;;
59336;SDS011;45115;52.002;4.686;2022-09-29T03:13:07;21.00;;;12.35;;
59336;SDS011;45115;52.002;4.686;2022-09-29T03:15:34;16.80;;;10.07;;
59336;SDS011;45115;52.002;4.686;2022-09-29T03:18:01;22.67;;;13.10;;
59336;SDS011;45115;52.002;4.686;2022-09-29T03:20:28;20.70;;;12.70;;
59336;SDS011;45115;52.002;4.686;2022-09-29T03:22:56;19.60;;;11.10;;
59336;SDS011;45115;52.002;4.686;2022-09-29T03:25:23;22.77;;;13.05;;
59336;SDS011;45115;52.002;4.686;2022-09-29T03:27:50;24.83;;;13.23;;
59336;SDS011;45115;52.002;4.686;2022-09-29T03:30:17;22.10;;;12.00;;
59336;SDS011;45115;52.002;4.686;2022-09-29T03:32:44;21.42;;;12.50;;
59336;SDS011;45115;52.002;4.686;2022-09-29T03:35:11;24.30;;;14.05;;
59336;SDS011;45115;52.002;4.686;2022-09-29T03:37:38;20.92;;;12.23;;
59336;SDS011;45115;52.002;4.686;2022-09-29T03:40:07;18.88;;;11.02;;
59336;SDS011;45115;52.002;4.686;2022-09-29T03:42:34;21.45;;;11.80;;
59336;SDS011;45115;52.002;4.686;2022-09-29T03:45:01;25.42;;;12.88;;
59336;SDS011;45115;52.002;4.686;2022-09-29T03:47:27;21.10;;;12.38;;
59336;SDS011;45115;52.002;4.686;2022-09-29T03:49:54;22.90;;;13.00;;
59336;SDS011;45115;52.002;4.686;2022-09-29T03:52:21;22.77;;;12.65;;
59336;SDS011;45115;52.002;4.686;2022-09-29T03:54:47;21.90;;;12.23;;
59336;SDS011;45115;52.002;4.686;2022-09-29T03:57:15;15.52;;;9.90;;
59336;SDS011;45115;52.002;4.686;2022-09-29T03:59:42;18.10;;;10.95;;
59336;SDS011;45115;52.002;4.686;2022-09-29T04:02:09;21.60;;;12.63;;
59336;SDS011;45115;52.002;4.686;2022-09-29T04:04:35;26.70;;;12.20;;
59336;SDS011;45115;52.002;4.686;2022-09-29T04:07:02;25.73;;;13.88;;
59336;SDS011;45115;52.002;4.686;2022-09-29T04:09:28;23.63;;;14.27;;
59336;SDS011;45115;52.002;4.686;2022-09-29T04:11:55;27.60;;;15.80;;
59336;SDS011;45115;52.002;4.686;2022-09-29T04:14:23;24.83;;;13.68;;
59336;SDS011;45115;52.002;4.686;2022-09-29T04:16:50;22.52;;;14.38;;
59336;SDS011;45115;52.002;4.686;2022-09-29T04:19:16;24.42;;;15.48;;
59336;SDS011;45115;52.002;4.686;2022-09-29T04:21:43;23.50;;;13.27;;
59336;SDS011;45115;52.002;4.686;2022-09-29T04:24:10;25.48;;;14.27;;
59336;SDS011;45115;52.002;4.686;2022-09-29T04:26:37;21.67;;;13.77;;
59336;SDS011;45115;52.002;4.686;2022-09-29T04:29:04;30.13;;;15.73;;
59336;SDS011;45115;52.002;4.686;2022-09-29T04:31:32;27.40;;;15.70;;
59336;SDS011;45115;52.002;4.686;2022-09-29T04:33:59;30.17;;;15.18;;
59336;SDS011;45115;52.002;4.686;2022-09-29T04:36:26;25.23;;;13.90;;
59336;SDS011;45115;52.002;4.686;2022-09-29T04:38:52;23.13;;;12.40;;
59336;SDS011;45115;52.002;4.686;2022-09-29T04:41:19;25.88;;;13.95;;
59336;SDS011;45115;52.002;4.686;2022-09-29T04:43:46;20.85;;;12.15;;
59336;SDS011;45115;52.002;4.686;2022-09-29T04:46:13;19.38;;;10.57;;
59336;SDS011;45115;52.002;4.686;2022-09-29T04:48:41;23.45;;;12.07;;
59336;SDS011;45115;52.002;4.686;2022-09-29T04:51:08;24.20;;;12.95;;
59336;SDS011;45115;52.002;4.686;2022-09-29T04:53:35;23.67;;;13.07;;
59336;SDS011;45115;52.002;4.686;2022-09-29T04:56:05;20.40;;;10.75;;
59336;SDS011;45115;52.002;4.686;2022-09-29T04:58:33;23.40;;;11.93;;
59336;SDS011;45115;52.002;4.686;2022-09-29T05:01:06;21.38;;;11.43;;
59336;SDS011;45115;52.002;4.686;2022-09-29T05:03:34;21.88;;;12.55;;
59336;SDS011;45115;52.002;4.686;2022-09-29T05:06:02;28.40;;;14.05;;
59336;SDS011;45115;52.002;4.686;2022-09-29T05:08:30;23.13;;;13.25;;
59336;SDS011;45115;52.002;4.686;2022-09-29T05:10:57;24.67;;;11.93;;
59336;SDS011;45115;52.002;4.686;2022-09-29T05:13:23;19.75;;;12.27;;
59336;SDS011;45115;52.002;4.686;2022-09-29T05:15:54;18.42;;;10.30;;
59336;SDS011;45115;52.002;4.686;2022-09-29T05:18:21;18.42;;;10.23;;
59336;SDS011;45115;52.002;4.686;2022-09-29T05:20:48;18.90;;;10.90;;
59336;SDS011;45115;52.002;4.686;2022-09-29T05:23:16;29.40;;;10.38;;
59336;SDS011;45115;52.002;4.686;2022-09-29T05:25:43;16.38;;;8.90;;
59336;SDS011;45115;52.002;4.686;2022-09-29T05:28:10;13.75;;;7.88;;
59336;SDS011;45115;52.002;4.686;2022-09-29T05:30:39;13.30;;;8.43;;
59336;SDS011;45115;52.002;4.686;2022-09-29T05:33:06;14.00;;;8.80;;
59336;SDS011;45115;52.002;4.686;2022-09-29T05:35:33;15.75;;;8.85;;
59336;SDS011;45115;52.002;4.686;2022-09-29T05:37:59;15.77;;;9.05;;
59336;SDS011;45115;52.002;4.686;2022-09-29T05:40:28;14.80;;;8.95;;
59336;SDS011;45115;52.002;4.686;2022-09-29T05:42:54;14.27;;;8.80;;
59336;SDS011;45115;52.002;4.686;2022-09-29T05:45:24;23.40;;;9.27;;
59336;SDS011;45115;52.002;4.686;2022-09-29T05:47:50;18.38;;;9.93;;
59336;SDS011;45115;52.002;4.686;2022-09-29T05:50:18;18.15;;;9.23;;
59336;SDS011;45115;52.002;4.686;2022-09-29T05:52:46;18.50;;;9.98;;
59336;SDS011;45115;52.002;4.686;2022-09-29T05:55:14;31.60;;;13.07;;
59336;SDS011;45115;52.002;4.686;2022-09-29T05:57:44;25.73;;;12.20;;
59336;SDS011;45115;52.002;4.686;2022-09-29T06:00:13;23.20;;;11.82;;
59336;SDS011;45115;52.002;4.686;2022-09-29T06:02:39;20.23;;;12.38;;
59336;SDS011;45115;52.002;4.686;2022-09-29T06:05:06;19.98;;;11.70;;
59336;SDS011;45115;52.002;4.686;2022-09-29T06:07:33;22.58;;;11.40;;
59336;SDS011;45115;52.002;4.686;2022-09-29T06:10:00;36.13;;;14.25;;
59336;SDS011;45115;52.002;4.686;2022-09-29T06:12:27;26.70;;;12.98;;
59336;SDS011;45115;52.002;4.686;2022-09-29T06:14:55;19.92;;;12.27;;
59336;SDS011;45115;52.002;4.686;2022-09-29T06:17:21;25.23;;;12.68;;
59336;SDS011;45115;52.002;4.686;2022-09-29T06:19:48;32.20;;;13.32;;
59336;SDS011;45115;52.002;4.686;2022-09-29T06:22:16;33.50;;;12.15;;
59336;SDS011;45115;52.002;4.686;2022-09-29T06:24:44;18.30;;;10.32;;
59336;SDS011;45115;52.002;4.686;2022-09-29T06:27:11;23.98;;;10.68;;
59336;SDS011;45115;52.002;4.686;2022-09-29T06:29:38;19.52;;;11.10;;
59336;SDS011;45115;52.002;4.686;2022-09-29T06:32:07;19.80;;;9.88;;
59336;SDS011;45115;52.002;4.686;2022-09-29T06:34:33;16.58;;;10.02;;
59336;SDS011;45115;52.002;4.686;2022-09-29T06:37:20;17.48;;;10.35;;
59336;SDS011;45115;52.002;4.686;2022-09-29T06:40:01;18.73;;;10.60;;
59336;SDS011;45115;52.002;4.686;2022-09-29T06:42:29;19.88;;;11.48;;
59336;SDS011;45115;52.002;4.686;2022-09-29T06:44:56;18.60;;;11.15;;
59336;SDS011;45115;52.002;4.686;2022-09-29T06:47:24;19.40;;;12.20;;
59336;SDS011;45115;52.002;4.686;2022-09-29T06:49:51;23.45;;;13.35;;
59336;SDS011;45115;52.002;4.686;2022-09-29T06:52:18;21.27;;;12.75;;
59336;SDS011;45115;52.002;4.686;2022-09-29T06:54:44;23.48;;;12.40;;
59336;SDS011;45115;52.002;4.686;2022-09-29T06:57:11;19.80;;;12.23;;
59336;SDS011;45115;52.002;4.686;2022-09-29T06:59:38;21.95;;;12.40;;
59336;SDS011;45115;52.002;4.686;2022-09-29T07:02:05;21.48;;;13.57;;
59336;SDS011;45115;52.002;4.686;2022-09-29T07:04:33;27.98;;;15.88;;
59336;SDS011;45115;52.002;4.686;2022-09-29T07:07:00;27.10;;;15.38;;
59336;SDS011;45115;52.002;4.686;2022-09-29T07:09:26;25.15;;;15.35;;
59336;SDS011;45115;52.002;4.686;2022-09-29T07:11:53;25.95;;;16.17;;
59336;SDS011;45115;52.002;4.686;2022-09-29T07:14:20;29.55;;;17.45;;
59336;SDS011;45115;52.002;4.686;2022-09-29T07:16:49;28.30;;;17.38;;
59336;SDS011;45115;52.002;4.686;2022-09-29T07:19:16;29.30;;;18.73;;
59336;SDS011;45115;52.002;4.686;2022-09-29T07:21:45;31.80;;;18.55;;
59336;SDS011;45115;52.002;4.686;2022-09-29T07:24:12;35.35;;;20.23;;
59336;SDS011;45115;52.002;4.686;2022-09-29T07:26:39;34.60;;;21.25;;
59336;SDS011;45115;52.002;4.686;2022-09-29T07:29:05;36.75;;;22.48;;
59336;SDS011;45115;52.002;4.686;2022-09-29T07:31:33;40.03;;;22.95;;
59336;SDS011;45115;52.002;4.686;2022-09-29T07:34:00;39.90;;;22.02;;
59336;SDS011;45115;52.002;4.686;2022-09-29T07:36:27;42.28;;;24.33;;
59336;SDS011;45115;52.002;4.686;2022-09-29T07:38:55;41.47;;;25.23;;
59336;SDS011;45115;52.002;4.686;2022-09-29T07:41:22;41.97;;;23.42;;
59336;SDS011;45115;52.002;4.686;2022-09-29T07:43:49;40.78;;;23.58;;
59336;SDS011;45115;52.002;4.686;2022-09-29T07:46:15;38.10;;;22.58;;
59336;SDS011;45115;52.002;4.686;2022-09-29T07:48:42;36.75;;;22.23;;
59336;SDS011;45115;52.002;4.686;2022-09-29T07:51:09;39.35;;;22.05;;
59336;SDS011;45115;52.002;4.686;2022-09-29T07:53:38;30.90;;;18.60;;
59336;SDS011;45115;52.002;4.686;2022-09-29T07:56:07;29.85;;;18.88;;
59336;SDS011;45115;52.002;4.686;2022-09-29T07:58:35;30.45;;;18.75;;
59336;SDS011;45115;52.002;4.686;2022-09-29T08:01:03;30.70;;;19.45;;
59336;SDS011;45115;52.002;4.686;2022-09-29T08:03:34;28.80;;;17.75;;
59336;SDS011;45115;52.002;4.686;2022-09-29T08:06:01;31.08;;;18.48;;
59336;SDS011;45115;52.002;4.686;2022-09-29T08:08:28;28.52;;;17.90;;
59336;SDS011;45115;52.002;4.686;2022-09-29T08:11:00;26.35;;;16.42;;
59336;SDS011;45115;52.002;4.686;2022-09-29T08:13:29;24.55;;;15.27;;
59336;SDS011;45115;52.002;4.686;2022-09-29T08:15:57;29.55;;;17.35;;
59336;SDS011;45115;52.002;4.686;2022-09-29T08:18:24;27.50;;;18.02;;
59336;SDS011;45115;52.002;4.686;2022-09-29T08:20:51;25.90;;;16.88;;
59336;SDS011;45115;52.002;4.686;2022-09-29T08:23:19;28.77;;;18.15;;
59336;SDS011;45115;52.002;4.686;2022-09-29T08:25:46;25.58;;;16.77;;
59336;SDS011;45115;52.002;4.686;2022-09-29T08:28:13;26.05;;;16.95;;
59336;SDS011;45115;52.002;4.686;2022-09-29T08:30:41;26.05;;;16.98;;
59336;SDS011;45115;52.002;4.686;2022-09-29T08:33:08;22.77;;;15.07;;
59336;SDS011;45115;52.002;4.686;2022-09-29T08:35:38;24.45;;;15.45;;
59336;SDS011;45115;52.002;4.686;2022-09-29T08:38:05;28.17;;;16.83;;
59336;SDS011;45115;52.002;4.686;2022-09-29T08:40:32;24.30;;;16.40;;
59336;SDS011;45115;52.002;4.686;2022-09-29T08:43:00;23.25;;;15.45;;
59336;SDS011;45115;52.002;4.686;2022-09-29T08:45:36;28.60;;;16.67;;
59336;SDS011;45115;52.002;4.686;2022-09-29T08:48:10;24.17;;;16.10;;
59336;SDS011;45115;52.002;4.686;2022-09-29T08:50:41;27.33;;;17.20;;
59336;SDS011;45115;52.002;4.686;2022-09-29T08:53:12;26.63;;;17.10;;
59336;SDS011;45115;52.002;4.686;2022-09-29T08:55:43;27.60;;;17.60;;
59336;SDS011;45115;52.002;4.686;2022-09-29T08:58:13;30.40;;;18.65;;
59336;SDS011;45115;52.002;4.686;2022-09-29T09:00:42;25.98;;;18.15;;
59336;SDS011;45115;52.002;4.686;2022-09-29T09:03:22;28.20;;;18.23;;
59336;SDS011;45115;52.002;4.686;2022-09-29T09:06:06;29.45;;;19.52;;
59336;SDS011;45115;52.002;4.686;2022-09-29T09:08:47;29.20;;;18.98;;
59336;SDS011;45115;52.002;4.686;2022-09-29T09:11:32;33.00;;;20.40;;
59336;SDS011;45115;52.002;4.686;2022-09-29T09:14:12;30.77;;;18.70;;
59336;SDS011;45115;52.002;4.686;2022-09-29T09:16:51;31.10;;;19.67;;
59336;SDS011;45115;52.002;4.686;2022-09-29T09:19:37;29.95;;;19.23;;
59336;SDS011;45115;52.002;4.686;2022-09-29T09:22:20;30.55;;;19.10;;
59336;SDS011;45115;52.002;4.686;2022-09-29T09:24:49;25.60;;;16.67;;
59336;SDS011;45115;52.002;4.686;2022-09-29T09:27:23;28.52;;;18.17;;
59336;SDS011;45115;52.002;4.686;2022-09-29T09:29:55;27.50;;;16.27;;
59336;SDS011;45115;52.002;4.686;2022-09-29T09:32:29;24.48;;;15.57;;
59336;SDS011;45115;52.002;4.686;2022-09-29T09:35:03;23.33;;;14.95;;
59336;SDS011;45115;52.002;4.686;2022-09-29T09:37:41;22.73;;;14.13;;
59336;SDS011;45115;52.002;4.686;2022-09-29T09:40:12;20.27;;;12.50;;
59336;SDS011;45115;52.002;4.686;2022-09-29T09:42:44;19.50;;;13.02;;
59336;SDS011;45115;52.002;4.686;2022-09-29T09:45:17;18.17;;;11.27;;
59336;SDS011;45115;52.002;4.686;2022-09-29T09:47:52;18.45;;;11.85;;
59336;SDS011;45115;52.002;4.686;2022-09-29T09:50:24;15.73;;;9.50;;
59336;SDS011;45115;52.002;4.686;2022-09-29T09:52:52;17.85;;;10.45;;
59336;SDS011;45115;52.002;4.686;2022-09-29T09:55:24;16.20;;;10.35;;
59336;SDS011;45115;52.002;4.686;2022-09-29T09:57:55;19.75;;;11.90;;
59336;SDS011;45115;52.002;4.686;2022-09-29T10:00:45;17.85;;;10.73;;
59336;SDS011;45115;52.002;4.686;2022-09-29T10:03:17;14.75;;;9.48;;
59336;SDS011;45115;52.002;4.686;2022-09-29T10:05:46;16.08;;;9.32;;
59336;SDS011;45115;52.002;4.686;2022-09-29T10:08:17;14.02;;;9.48;;
59336;SDS011;45115;52.002;4.686;2022-09-29T10:10:49;17.40;;;10.48;;
59336;SDS011;45115;52.002;4.686;2022-09-29T10:13:16;16.23;;;9.73;;
59336;SDS011;45115;52.002;4.686;2022-09-29T10:15:44;16.42;;;9.95;;
59336;SDS011;45115;52.002;4.686;2022-09-29T10:18:16;13.45;;;9.02;;
59336;SDS011;45115;52.002;4.686;2022-09-29T10:20:47;14.02;;;8.15;;
59336;SDS011;45115;52.002;4.686;2022-09-29T10:23:19;13.23;;;7.80;;
59336;SDS011;45115;52.002;4.686;2022-09-29T10:25:52;12.73;;;7.70;;
59336;SDS011;45115;52.002;4.686;2022-09-29T10:28:22;13.80;;;7.60;;
59336;SDS011;45115;52.002;4.686;2022-09-29T10:30:51;13.27;;;7.72;;
59336;SDS011;45115;52.002;4.686;2022-09-29T10:33:20;13.35;;;7.70;;
59336;SDS011;45115;52.002;4.686;2022-09-29T10:35:50;12.70;;;7.05;;
59336;SDS011;45115;52.002;4.686;2022-09-29T10:38:31;13.93;;;8.13;;
59336;SDS011;45115;52.002;4.686;2022-09-29T10:40:59;14.75;;;7.70;;
59336;SDS011;45115;52.002;4.686;2022-09-29T10:43:31;16.00;;;8.70;;
59336;SDS011;45115;52.002;4.686;2022-09-29T10:46:02;13.57;;;7.60;;
59336;SDS011;45115;52.002;4.686;2022-09-29T10:48:29;11.25;;;6.40;;
59336;SDS011;45115;52.002;4.686;2022-09-29T10:50:59;10.90;;;6.18;;
59336;SDS011;45115;52.002;4.686;2022-09-29T10:53:29;9.35;;;5.50;;
59336;SDS011;45115;52.002;4.686;2022-09-29T10:56:02;10.02;;;6.00;;
59336;SDS011;45115;52.002;4.686;2022-09-29T10:58:36;10.98;;;5.82;;
59336;SDS011;45115;52.002;4.686;2022-09-29T11:01:07;8.95;;;5.18;;
59336;SDS011;45115;52.002;4.686;2022-09-29T11:03:36;8.52;;;5.60;;
59336;SDS011;45115;52.002;4.686;2022-09-29T11:06:08;11.82;;;6.40;;
59336;SDS011;45115;52.002;4.686;2022-09-29T11:08:53;11.57;;;6.20;;
59336;SDS011;45115;52.002;4.686;2022-09-29T11:11:23;7.13;;;4.68;;
59336;SDS011;45115;52.002;4.686;2022-09-29T11:13:52;7.03;;;4.00;;
59336;SDS011;45115;52.002;4.686;2022-09-29T11:16:24;7.78;;;5.10;;
59336;SDS011;45115;52.002;4.686;2022-09-29T11:18:53;9.82;;;5.80;;
59336;SDS011;45115;52.002;4.686;2022-09-29T11:21:39;9.65;;;5.85;;
59336;SDS011;45115;52.002;4.686;2022-09-29T11:24:33;6.55;;;3.95;;
59336;SDS011;45115;52.002;4.686;2022-09-29T11:27:12;6.43;;;3.55;;
59336;SDS011;45115;52.002;4.686;2022-09-29T11:29:48;5.90;;;3.80;;
59336;SDS011;45115;52.002;4.686;2022-09-29T11:32:29;6.85;;;4.22;;
59336;SDS011;45115;52.002;4.686;2022-09-29T11:35:15;6.97;;;4.28;;
59336;SDS011;45115;52.002;4.686;2022-09-29T11:37:58;6.30;;;3.88;;
59336;SDS011;45115;52.002;4.686;2022-09-29T11:40:39;7.45;;;4.45;;
59336;SDS011;45115;52.002;4.686;2022-09-29T11:43:22;9.18;;;5.15;;
59336;SDS011;45115;52.002;4.686;2022-09-29T11:46:02;8.40;;;5.13;;
59336;SDS011;45115;52.002;4.686;2022-09-29T11:48:51;9.57;;;4.88;;
59336;SDS011;45115;52.002;4.686;2022-09-29T11:51:33;7.10;;;4.28;;
59336;SDS011;45115;52.002;4.686;2022-09-29T11:54:15;6.57;;;3.45;;
59336;SDS011;45115;52.002;4.686;2022-09-29T11:57:02;7.30;;;3.60;;
59336;SDS011;45115;52.002;4.686;2022-09-29T11:59:39;5.80;;;3.80;;
59336;SDS011;45115;52.002;4.686;2022-09-29T12:02:26;2.88;;;2.20;;
59336;SDS011;45115;52.002;4.686;2022-09-29T12:05:13;4.80;;;2.53;;
59336;SDS011;45115;52.002;4.686;2022-09-29T12:07:47;1.60;;;1.27;;
59336;SDS011;45115;52.002;4.686;2022-09-29T12:10:30;2.10;;;1.08;;
59336;SDS011;45115;52.002;4.686;2022-09-29T12:13:05;1.70;;;1.60;;
59336;SDS011;45115;52.002;4.686;2022-09-29T12:15:48;2.65;;;2.20;;
59336;SDS011;45115;52.002;4.686;2022-09-29T12:18:23;2.97;;;2.20;;
59336;SDS011;45115;52.002;4.686;2022-09-29T12:20:53;2.13;;;1.80;;
59336;SDS011;45115;52.002;4.686;2022-09-29T12:23:22;1.70;;;1.60;;
59336;SDS011;45115;52.002;4.686;2022-09-29T12:25:54;2.33;;;1.50;;
59336;SDS011;45115;52.002;4.686;2022-09-29T12:28:26;2.05;;;1.60;;
59336;SDS011;45115;52.002;4.686;2022-09-29T12:30:58;1.70;;;1.60;;
59336;SDS011;45115;52.002;4.686;2022-09-29T12:36:02;3.43;;;2.50;;
59336;SDS011;45115;52.002;4.686;2022-09-29T12:38:55;3.88;;;2.92;;
59336;SDS011;45115;52.002;4.686;2022-09-29T12:41:28;3.60;;;2.88;;
59336;SDS011;45115;52.002;4.686;2022-09-29T12:44:03;3.88;;;2.63;;
59336;SDS011;45115;52.002;4.686;2022-09-29T12:46:40;4.30;;;2.78;;
59336;SDS011;45115;52.002;4.686;2022-09-29T12:49:12;4.95;;;2.85;;
59336;SDS011;45115;52.002;4.686;2022-09-29T12:51:46;6.32;;;2.90;;
59336;SDS011;45115;52.002;4.686;2022-09-29T12:54:16;3.33;;;2.75;;
59336;SDS011;45115;52.002;4.686;2022-09-29T12:56:49;3.15;;;2.58;;
59336;SDS011;45115;52.002;4.686;2022-09-29T12:59:23;5.38;;;2.70;;
59336;SDS011;45115;52.002;4.686;2022-09-29T13:01:56;3.10;;;2.70;;
59336;SDS011;45115;52.002;4.686;2022-09-29T13:04:40;5.93;;;2.70;;
59336;SDS011;45115;52.002;4.686;2022-09-29T13:07:42;3.58;;;2.35;;
59336;SDS011;45115;52.002;4.686;2022-09-29T13:10:48;3.13;;;2.10;;
59336;SDS011;45115;52.002;4.686;2022-09-29T13:13:29;3.90;;;2.80;;
59336;SDS011;45115;52.002;4.686;2022-09-29T13:16:11;4.22;;;2.38;;
59336;SDS011;45115;52.002;4.686;2022-09-29T13:19:04;4.25;;;2.35;;
59336;SDS011;45115;52.002;4.686;2022-09-29T13:21:50;4.38;;;2.50;;
59336;SDS011;45115;52.002;4.686;2022-09-29T13:24:29;3.08;;;2.58;;
59336;SDS011;45115;52.002;4.686;2022-09-29T13:27:09;2.50;;;2.10;;
59336;SDS011;45115;52.002;4.686;2022-09-29T13:29:53;3.55;;;2.30;;
59336;SDS011;45115;52.002;4.686;2022-09-29T13:32:25;5.13;;;2.33;;
59336;SDS011;45115;52.002;4.686;2022-09-29T13:34:52;2.17;;;1.92;;
59336;SDS011;45115;52.002;4.686;2022-09-29T13:37:21;4.15;;;2.30;;
59336;SDS011;45115;52.002;4.686;2022-09-29T13:39:51;3.60;;;2.10;;
59336;SDS011;45115;52.002;4.686;2022-09-29T13:47:46;3.58;;;2.30;;
59336;SDS011;45115;52.002;4.686;2022-09-29T13:53:25;3.72;;;2.28;;
59336;SDS011;45115;52.002;4.686;2022-09-29T13:56:07;2.47;;;1.90;;
59336;SDS011;45115;52.002;4.686;2022-09-29T13:58:38;3.03;;;2.13;;
59336;SDS011;45115;52.002;4.686;2022-09-29T14:01:31;5.93;;;2.10;;
59336;SDS011;45115;52.002;4.686;2022-09-29T14:07:10;3.63;;;1.73;;
59336;SDS011;45115;52.002;4.686;2022-09-29T14:09:39;3.28;;;1.67;;
59336;SDS011;45115;52.002;4.686;2022-09-29T14:12:14;2.00;;;1.80;;
59336;SDS011;45115;52.002;4.686;2022-09-29T14:14:45;2.15;;;1.40;;
59336;SDS011;45115;52.002;4.686;2022-09-29T14:17:19;2.42;;;1.90;;
59336;SDS011;45115;52.002;4.686;2022-09-29T14:19:50;1.80;;;1.55;;
59336;SDS011;45115;52.002;4.686;2022-09-29T14:25:28;2.95;;;1.77;;
59336;SDS011;45115;52.002;4.686;2022-09-29T14:28:31;1.60;;;1.50;;
59336;SDS011;45115;52.002;4.686;2022-09-29T14:31:03;2.13;;;1.48;;
59336;SDS011;45115;52.002;4.686;2022-09-29T14:33:46;1.48;;;1.30;;
59336;SDS011;45115;52.002;4.686;2022-09-29T14:36:17;1.60;;;1.50;;
59336;SDS011;45115;52.002;4.686;2022-09-29T14:38:48;1.70;;;1.50;;
59336;SDS011;45115;52.002;4.686;2022-09-29T14:41:22;2.33;;;1.70;;
59336;SDS011;45115;52.002;4.686;2022-09-29T14:43:51;3.30;;;1.83;;
59336;SDS011;45115;52.002;4.686;2022-09-29T14:46:36;3.28;;;1.80;;
59336;SDS011;45115;52.002;4.686;2022-09-29T14:53:19;3.80;;;1.70;;
59336;SDS011;45115;52.002;4.686;2022-09-29T14:56:07;1.63;;;1.50;;
59336;SDS011;45115;52.002;4.686;2022-09-29T14:58:46;2.97;;;1.70;;
59336;SDS011;45115;52.002;4.686;2022-09-29T15:01:27;3.42;;;1.98;;
59336;SDS011;45115;52.002;4.686;2022-09-29T15:03:55;2.65;;;2.20;;
59336;SDS011;45115;52.002;4.686;2022-09-29T15:06:31;3.08;;;1.70;;
59336;SDS011;45115;52.002;4.686;2022-09-29T15:08:58;3.28;;;2.20;;
59336;SDS011;45115;52.002;4.686;2022-09-29T15:11:28;2.22;;;1.67;;
59336;SDS011;45115;52.002;4.686;2022-09-29T15:13:57;1.85;;;1.63;;
59336;SDS011;45115;52.002;4.686;2022-09-29T15:16:27;2.60;;;1.65;;
59336;SDS011;45115;52.002;4.686;2022-09-29T15:19:03;2.80;;;2.30;;
59336;SDS011;45115;52.002;4.686;2022-09-29T15:21:48;1.95;;;1.80;;